sensor_id;sensor_type;location;lat;lon;timestamp;P1;durP1;ratioP1;P2;durP2;ratioP2
29416;SDS011;28421;51.030;4.006;2023-04-07T03:15:11;18.45;;;11.10;;
29416;SDS011;28421;51.030;4.006;2023-04-07T03:18:01;14.55;;;8.90;;
29416;SDS011;28421;51.030;4.006;2023-04-07T03:20:28;23.58;;;10.40;;
29416;SDS011;28421;51.030;4.006;2023-04-07T03:22:59;17.30;;;10.82;;
29416;SDS011;28421;51.030;4.006;2023-04-07T03:25:27;18.70;;;9.75;;
29416;SDS011;28421;51.030;4.006;2023-04-07T03:27:53;23.30;;;10.23;;
29416;SDS011;28421;51.030;4.006;2023-04-07T03:30:19;19.05;;;10.80;;
29416;SDS011;28421;51.030;4.006;2023-04-07T03:32:45;17.88;;;10.88;;
29416;SDS011;28421;51.030;4.006;2023-04-07T03:35:10;20.27;;;10.68;;
29416;SDS011;28421;51.030;4.006;2023-04-07T03:37:36;20.48;;;10.93;;
29416;SDS011;28421;51.030;4.006;2023-04-07T03:40:04;20.52;;;9.60;;
29416;SDS011;28421;51.030;4.006;2023-04-07T03:42:33;25.23;;;12.15;;
29416;SDS011;28421;51.030;4.006;2023-04-07T03:45:02;26.95;;;11.27;;
29416;SDS011;28421;51.030;4.006;2023-04-07T03:47:30;19.33;;;9.88;;
29416;SDS011;28421;51.030;4.006;2023-04-07T03:49:59;16.35;;;10.77;;
29416;SDS011;28421;51.030;4.006;2023-04-07T03:52:26;15.10;;;9.18;;
29416;SDS011;28421;51.030;4.006;2023-04-07T03:54:58;20.20;;;10.23;;
29416;SDS011;28421;51.030;4.006;2023-04-07T03:57:29;19.67;;;11.30;;
29416;SDS011;28421;51.030;4.006;2023-04-07T03:59:54;19.23;;;10.55;;
29416;SDS011;28421;51.030;4.006;2023-04-07T04:02:20;19.00;;;9.88;;
29416;SDS011;28421;51.030;4.006;2023-04-07T04:04:50;15.45;;;8.23;;
29416;SDS011;28421;51.030;4.006;2023-04-07T04:07:16;13.32;;;8.90;;
29416;SDS011;28421;51.030;4.006;2023-04-07T04:09:48;13.68;;;8.90;;
29416;SDS011;28421;51.030;4.006;2023-04-07T04:12:13;15.75;;;9.85;;
29416;SDS011;28421;51.030;4.006;2023-04-07T04:14:48;18.90;;;10.23;;
29416;SDS011;28421;51.030;4.006;2023-04-07T04:17:15;18.00;;;10.60;;
29416;SDS011;28421;51.030;4.006;2023-04-07T04:19:44;25.85;;;11.38;;
29416;SDS011;28421;51.030;4.006;2023-04-07T04:22:20;26.23;;;12.25;;
29416;SDS011;28421;51.030;4.006;2023-04-07T04:24:51;18.50;;;12.43;;
29416;SDS011;28421;51.030;4.006;2023-04-07T04:27:17;24.38;;;12.27;;
29416;SDS011;28421;51.030;4.006;2023-04-07T04:29:46;28.23;;;13.43;;
29416;SDS011;28421;51.030;4.006;2023-04-07T04:32:13;20.63;;;11.23;;
29416;SDS011;28421;51.030;4.006;2023-04-07T04:34:41;21.42;;;11.13;;
29416;SDS011;28421;51.030;4.006;2023-04-07T04:37:08;19.17;;;11.30;;
29416;SDS011;28421;51.030;4.006;2023-04-07T04:39:34;20.75;;;11.95;;
29416;SDS011;28421;51.030;4.006;2023-04-07T04:41:59;20.40;;;11.60;;
29416;SDS011;28421;51.030;4.006;2023-04-07T04:44:31;22.83;;;12.75;;
29416;SDS011;28421;51.030;4.006;2023-04-07T04:46:57;26.40;;;12.48;;
29416;SDS011;28421;51.030;4.006;2023-04-07T04:49:23;20.08;;;11.50;;
29416;SDS011;28421;51.030;4.006;2023-04-07T04:51:50;19.98;;;12.90;;
29416;SDS011;28421;51.030;4.006;2023-04-07T04:54:17;24.60;;;13.13;;
29416;SDS011;28421;51.030;4.006;2023-04-07T04:56:43;22.05;;;13.07;;
29416;SDS011;28421;51.030;4.006;2023-04-07T04:59:09;23.05;;;12.75;;
29416;SDS011;28421;51.030;4.006;2023-04-07T05:01:47;23.02;;;12.13;;
29416;SDS011;28421;51.030;4.006;2023-04-07T05:04:15;24.30;;;12.88;;
29416;SDS011;28421;51.030;4.006;2023-04-07T05:06:47;22.45;;;13.40;;
29416;SDS011;28421;51.030;4.006;2023-04-07T05:09:16;30.02;;;13.57;;
29416;SDS011;28421;51.030;4.006;2023-04-07T05:11:44;36.15;;;13.05;;
29416;SDS011;28421;51.030;4.006;2023-04-07T05:14:10;22.50;;;13.75;;
29416;SDS011;28421;51.030;4.006;2023-04-07T05:16:39;34.65;;;14.75;;
29416;SDS011;28421;51.030;4.006;2023-04-07T05:19:05;28.17;;;14.80;;
29416;SDS011;28421;51.030;4.006;2023-04-07T05:21:31;28.58;;;15.38;;
29416;SDS011;28421;51.030;4.006;2023-04-07T05:24:00;34.47;;;15.55;;
29416;SDS011;28421;51.030;4.006;2023-04-07T05:26:26;31.73;;;16.20;;
29416;SDS011;28421;51.030;4.006;2023-04-07T05:28:52;37.55;;;16.98;;
29416;SDS011;28421;51.030;4.006;2023-04-07T05:31:21;34.08;;;16.30;;
29416;SDS011;28421;51.030;4.006;2023-04-07T05:33:50;27.25;;;14.70;;
29416;SDS011;28421;51.030;4.006;2023-04-07T05:36:18;28.85;;;15.00;;
29416;SDS011;28421;51.030;4.006;2023-04-07T05:38:44;31.63;;;16.40;;
29416;SDS011;28421;51.030;4.006;2023-04-07T05:41:13;42.55;;;15.70;;
29416;SDS011;28421;51.030;4.006;2023-04-07T05:43:38;35.10;;;15.60;;
29416;SDS011;28421;51.030;4.006;2023-04-07T05:46:04;29.92;;;13.98;;
29416;SDS011;28421;51.030;4.006;2023-04-07T05:48:33;33.55;;;14.57;;
29416;SDS011;28421;51.030;4.006;2023-04-07T05:50:59;33.70;;;15.02;;
29416;SDS011;28421;51.030;4.006;2023-04-07T05:53:25;31.38;;;13.85;;
29416;SDS011;28421;51.030;4.006;2023-04-07T05:55:50;37.00;;;14.00;;
29416;SDS011;28421;51.030;4.006;2023-04-07T05:58:34;35.60;;;12.45;;
29416;SDS011;28421;51.030;4.006;2023-04-07T06:01:00;33.63;;;14.57;;
29416;SDS011;28421;51.030;4.006;2023-04-07T06:03:25;30.70;;;14.40;;
29416;SDS011;28421;51.030;4.006;2023-04-07T06:06:01;28.67;;;12.93;;
29416;SDS011;28421;51.030;4.006;2023-04-07T06:08:27;26.83;;;11.77;;
29416;SDS011;28421;51.030;4.006;2023-04-07T06:10:52;28.80;;;12.35;;
29416;SDS011;28421;51.030;4.006;2023-04-07T06:13:18;27.38;;;12.20;;
29416;SDS011;28421;51.030;4.006;2023-04-07T06:15:44;33.47;;;12.05;;
29416;SDS011;28421;51.030;4.006;2023-04-07T06:18:09;25.15;;;13.10;;
29416;SDS011;28421;51.030;4.006;2023-04-07T06:20:35;29.25;;;12.05;;
29416;SDS011;28421;51.030;4.006;2023-04-07T06:23:00;29.65;;;12.93;;
29416;SDS011;28421;51.030;4.006;2023-04-07T06:25:26;24.15;;;11.77;;
29416;SDS011;28421;51.030;4.006;2023-04-07T06:27:52;26.83;;;11.23;;
29416;SDS011;28421;51.030;4.006;2023-04-07T06:30:18;31.08;;;12.02;;
29416;SDS011;28421;51.030;4.006;2023-04-07T06:32:44;27.77;;;10.80;;
29416;SDS011;28421;51.030;4.006;2023-04-07T06:35:10;19.95;;;9.38;;
29416;SDS011;28421;51.030;4.006;2023-04-07T06:37:36;22.38;;;11.45;;
29416;SDS011;28421;51.030;4.006;2023-04-07T06:40:03;23.52;;;10.95;;
29416;SDS011;28421;51.030;4.006;2023-04-07T06:42:31;20.35;;;9.15;;
29416;SDS011;28421;51.030;4.006;2023-04-07T06:45:05;22.93;;;9.60;;
29416;SDS011;28421;51.030;4.006;2023-04-07T06:47:31;31.80;;;12.73;;
29416;SDS011;28421;51.030;4.006;2023-04-07T06:49:57;20.05;;;10.23;;
29416;SDS011;28421;51.030;4.006;2023-04-07T06:52:22;29.40;;;10.07;;
29416;SDS011;28421;51.030;4.006;2023-04-07T06:54:48;19.20;;;9.02;;
29416;SDS011;28421;51.030;4.006;2023-04-07T06:57:13;23.90;;;8.90;;
29416;SDS011;28421;51.030;4.006;2023-04-07T06:59:39;29.48;;;10.27;;
29416;SDS011;28421;51.030;4.006;2023-04-07T07:02:04;25.35;;;9.98;;
29416;SDS011;28421;51.030;4.006;2023-04-07T07:04:31;22.73;;;10.18;;
29416;SDS011;28421;51.030;4.006;2023-04-07T07:06:58;26.52;;;10.65;;
29416;SDS011;28421;51.030;4.006;2023-04-07T07:09:23;24.80;;;9.98;;
29416;SDS011;28421;51.030;4.006;2023-04-07T07:11:49;21.35;;;8.43;;
29416;SDS011;28421;51.030;4.006;2023-04-07T07:14:14;16.52;;;7.05;;
29416;SDS011;28421;51.030;4.006;2023-04-07T07:16:40;17.45;;;7.28;;
29416;SDS011;28421;51.030;4.006;2023-04-07T07:19:05;16.20;;;6.25;;
29416;SDS011;28421;51.030;4.006;2023-04-07T07:21:31;10.93;;;5.22;;
29416;SDS011;28421;51.030;4.006;2023-04-07T07:23:56;20.92;;;6.38;;
29416;SDS011;28421;51.030;4.006;2023-04-07T07:26:21;15.35;;;7.05;;
29416;SDS011;28421;51.030;4.006;2023-04-07T07:28:47;10.40;;;6.70;;
29416;SDS011;28421;51.030;4.006;2023-04-07T07:31:12;20.98;;;8.35;;
29416;SDS011;28421;51.030;4.006;2023-04-07T07:33:39;17.20;;;7.43;;
29416;SDS011;28421;51.030;4.006;2023-04-07T07:36:07;12.35;;;6.47;;
29416;SDS011;28421;51.030;4.006;2023-04-07T07:38:33;15.95;;;7.97;;
29416;SDS011;28421;51.030;4.006;2023-04-07T07:40:58;14.13;;;7.95;;
29416;SDS011;28421;51.030;4.006;2023-04-07T07:43:23;17.58;;;7.50;;
29416;SDS011;28421;51.030;4.006;2023-04-07T07:45:49;14.30;;;7.70;;
29416;SDS011;28421;51.030;4.006;2023-04-07T07:48:14;15.55;;;7.57;;
29416;SDS011;28421;51.030;4.006;2023-04-07T07:50:40;22.52;;;8.82;;
29416;SDS011;28421;51.030;4.006;2023-04-07T07:53:06;20.42;;;8.77;;
29416;SDS011;28421;51.030;4.006;2023-04-07T07:55:32;16.15;;;7.05;;
29416;SDS011;28421;51.030;4.006;2023-04-07T07:57:57;13.90;;;7.57;;
29416;SDS011;28421;51.030;4.006;2023-04-07T08:00:22;14.93;;;7.38;;
29416;SDS011;28421;51.030;4.006;2023-04-07T08:02:48;20.67;;;7.25;;
29416;SDS011;28421;51.030;4.006;2023-04-07T08:05:13;21.38;;;7.45;;
29416;SDS011;28421;51.030;4.006;2023-04-07T08:07:39;15.70;;;7.82;;
29416;SDS011;28421;51.030;4.006;2023-04-07T08:10:07;11.20;;;6.93;;
29416;SDS011;28421;51.030;4.006;2023-04-07T08:12:33;11.48;;;7.53;;
29416;SDS011;28421;51.030;4.006;2023-04-07T08:14:58;12.73;;;7.72;;
29416;SDS011;28421;51.030;4.006;2023-04-07T08:17:23;16.40;;;7.05;;
29416;SDS011;28421;51.030;4.006;2023-04-07T08:19:49;13.30;;;6.95;;
29416;SDS011;28421;51.030;4.006;2023-04-07T08:22:14;17.75;;;6.82;;
29416;SDS011;28421;51.030;4.006;2023-04-07T08:24:40;17.27;;;7.30;;
29416;SDS011;28421;51.030;4.006;2023-04-07T08:27:05;10.18;;;7.28;;
29416;SDS011;28421;51.030;4.006;2023-04-07T08:29:31;15.77;;;5.97;;
29416;SDS011;28421;51.030;4.006;2023-04-07T08:31:56;11.32;;;7.65;;
29416;SDS011;28421;51.030;4.006;2023-04-07T08:34:22;17.30;;;7.03;;
29416;SDS011;28421;51.030;4.006;2023-04-07T08:36:48;12.52;;;7.78;;
29416;SDS011;28421;51.030;4.006;2023-04-07T08:39:13;12.95;;;5.88;;
29416;SDS011;28421;51.030;4.006;2023-04-07T08:41:39;15.05;;;6.20;;
29416;SDS011;28421;51.030;4.006;2023-04-07T08:44:06;10.70;;;5.90;;
29416;SDS011;28421;51.030;4.006;2023-04-07T08:46:33;10.27;;;4.65;;
29416;SDS011;28421;51.030;4.006;2023-04-07T08:49:00;14.07;;;5.65;;
29416;SDS011;28421;51.030;4.006;2023-04-07T08:51:29;9.98;;;5.13;;
29416;SDS011;28421;51.030;4.006;2023-04-07T08:53:58;7.90;;;3.63;;
29416;SDS011;28421;51.030;4.006;2023-04-07T08:56:30;9.35;;;4.78;;
29416;SDS011;28421;51.030;4.006;2023-04-07T08:59:00;11.00;;;3.40;;
29416;SDS011;28421;51.030;4.006;2023-04-07T09:01:27;6.55;;;3.45;;
29416;SDS011;28421;51.030;4.006;2023-04-07T09:03:53;10.63;;;3.40;;
29416;SDS011;28421;51.030;4.006;2023-04-07T09:06:22;8.43;;;3.40;;
29416;SDS011;28421;51.030;4.006;2023-04-07T09:08:48;2.42;;;2.20;;
29416;SDS011;28421;51.030;4.006;2023-04-07T09:11:13;3.80;;;2.67;;
29416;SDS011;28421;51.030;4.006;2023-04-07T09:13:38;12.00;;;3.60;;
29416;SDS011;28421;51.030;4.006;2023-04-07T09:16:04;9.23;;;3.67;;
29416;SDS011;28421;51.030;4.006;2023-04-07T09:18:30;14.48;;;3.72;;
29416;SDS011;28421;51.030;4.006;2023-04-07T09:20:59;7.50;;;2.45;;
29416;SDS011;28421;51.030;4.006;2023-04-07T09:23:31;8.90;;;3.53;;
29416;SDS011;28421;51.030;4.006;2023-04-07T09:25:58;13.75;;;3.30;;
29416;SDS011;28421;51.030;4.006;2023-04-07T09:28:47;16.63;;;3.60;;
29416;SDS011;28421;51.030;4.006;2023-04-07T09:31:12;12.23;;;3.35;;
29416;SDS011;28421;51.030;4.006;2023-04-07T09:33:38;11.32;;;4.57;;
29416;SDS011;28421;51.030;4.006;2023-04-07T09:36:03;8.70;;;2.95;;
29416;SDS011;28421;51.030;4.006;2023-04-07T09:38:36;8.80;;;3.72;;
29416;SDS011;28421;51.030;4.006;2023-04-07T09:41:07;8.27;;;3.17;;
29416;SDS011;28421;51.030;4.006;2023-04-07T09:43:38;5.38;;;3.25;;
29416;SDS011;28421;51.030;4.006;2023-04-07T09:46:07;11.05;;;4.93;;
29416;SDS011;28421;51.030;4.006;2023-04-07T09:48:36;9.25;;;3.25;;
29416;SDS011;28421;51.030;4.006;2023-04-07T09:51:07;12.10;;;3.20;;
29416;SDS011;28421;51.030;4.006;2023-04-07T09:53:46;8.35;;;3.75;;
29416;SDS011;28421;51.030;4.006;2023-04-07T09:56:15;16.52;;;4.43;;
29416;SDS011;28421;51.030;4.006;2023-04-07T09:58:43;12.07;;;4.07;;
29416;SDS011;28421;51.030;4.006;2023-04-07T10:01:10;14.32;;;4.03;;
29416;SDS011;28421;51.030;4.006;2023-04-07T10:03:36;12.50;;;4.30;;
29416;SDS011;28421;51.030;4.006;2023-04-07T10:06:02;12.07;;;3.50;;
29416;SDS011;28421;51.030;4.006;2023-04-07T10:08:33;7.20;;;3.63;;
29416;SDS011;28421;51.030;4.006;2023-04-07T10:11:00;12.23;;;3.33;;
29416;SDS011;28421;51.030;4.006;2023-04-07T10:13:30;9.45;;;3.53;;
29416;SDS011;28421;51.030;4.006;2023-04-07T10:15:57;6.05;;;2.85;;
29416;SDS011;28421;51.030;4.006;2023-04-07T10:18:27;14.27;;;3.10;;
29416;SDS011;28421;51.030;4.006;2023-04-07T10:20:56;6.78;;;3.28;;
29416;SDS011;28421;51.030;4.006;2023-04-07T10:26:10;7.73;;;2.70;;
29416;SDS011;28421;51.030;4.006;2023-04-07T10:28:39;5.55;;;2.58;;
29416;SDS011;28421;51.030;4.006;2023-04-07T10:31:07;7.03;;;2.92;;
29416;SDS011;28421;51.030;4.006;2023-04-07T10:33:50;9.10;;;3.42;;
29416;SDS011;28421;51.030;4.006;2023-04-07T10:36:17;4.95;;;3.33;;
29416;SDS011;28421;51.030;4.006;2023-04-07T10:41:33;3.97;;;1.92;;
29416;SDS011;28421;51.030;4.006;2023-04-07T10:44:02;9.27;;;2.33;;
29416;SDS011;28421;51.030;4.006;2023-04-07T10:47:15;8.13;;;2.47;;
29416;SDS011;28421;51.030;4.006;2023-04-07T10:49:28;4.05;;;2.60;;
29416;SDS011;28421;51.030;4.006;2023-04-07T10:54:35;3.70;;;1.83;;
29416;SDS011;28421;51.030;4.006;2023-04-07T10:59:26;12.27;;;2.30;;
29416;SDS011;28421;51.030;4.006;2023-04-07T11:04:40;8.75;;;1.33;;
29416;SDS011;28421;51.030;4.006;2023-04-07T11:07:12;8.77;;;1.38;;
29416;SDS011;28421;51.030;4.006;2023-04-07T11:10:11;2.65;;;1.38;;
29416;SDS011;28421;51.030;4.006;2023-04-07T11:12:45;2.15;;;1.25;;
29416;SDS011;28421;51.030;4.006;2023-04-07T11:15:56;2.83;;;1.73;;
29416;SDS011;28421;51.030;4.006;2023-04-07T11:18:21;7.72;;;1.77;;
29416;SDS011;28421;51.030;4.006;2023-04-07T11:21:05;6.90;;;1.50;;
29416;SDS011;28421;51.030;4.006;2023-04-07T11:23:46;2.33;;;1.20;;
29416;SDS011;28421;51.030;4.006;2023-04-07T11:26:13;5.80;;;1.40;;
29416;SDS011;28421;51.030;4.006;2023-04-07T11:31:22;5.10;;;1.25;;
29416;SDS011;28421;51.030;4.006;2023-04-07T11:33:52;4.72;;;1.90;;
29416;SDS011;28421;51.030;4.006;2023-04-07T11:36:31;8.57;;;2.55;;
29416;SDS011;28421;51.030;4.006;2023-04-07T11:39:36;3.53;;;2.30;;
29416;SDS011;28421;51.030;4.006;2023-04-07T11:42:05;10.50;;;2.10;;
29416;SDS011;28421;51.030;4.006;2023-04-07T11:44:46;9.25;;;3.00;;
29416;SDS011;28421;51.030;4.006;2023-04-07T11:47:12;4.18;;;1.67;;
29416;SDS011;28421;51.030;4.006;2023-04-07T11:49:44;4.63;;;1.83;;
29416;SDS011;28421;51.030;4.006;2023-04-07T11:52:11;5.65;;;1.50;;
29416;SDS011;28421;51.030;4.006;2023-04-07T11:54:45;7.57;;;2.30;;
29416;SDS011;28421;51.030;4.006;2023-04-07T11:57:25;3.00;;;2.08;;
29416;SDS011;28421;51.030;4.006;2023-04-07T12:00:06;9.75;;;3.67;;
29416;SDS011;28421;51.030;4.006;2023-04-07T12:02:32;4.10;;;1.98;;
29416;SDS011;28421;51.030;4.006;2023-04-07T12:04:59;4.85;;;2.15;;
29416;SDS011;28421;51.030;4.006;2023-04-07T12:07:24;5.50;;;1.95;;
29416;SDS011;28421;51.030;4.006;2023-04-07T12:09:52;7.78;;;1.90;;
29416;SDS011;28421;51.030;4.006;2023-04-07T12:12:28;6.65;;;2.42;;
29416;SDS011;28421;51.030;4.006;2023-04-07T12:14:55;5.90;;;2.13;;
29416;SDS011;28421;51.030;4.006;2023-04-07T12:17:21;5.47;;;1.92;;
29416;SDS011;28421;51.030;4.006;2023-04-07T12:19:52;8.90;;;1.63;;
29416;SDS011;28421;51.030;4.006;2023-04-07T12:22:18;6.00;;;2.75;;
29416;SDS011;28421;51.030;4.006;2023-04-07T12:24:44;3.97;;;2.17;;
29416;SDS011;28421;51.030;4.006;2023-04-07T12:27:09;6.03;;;2.20;;
29416;SDS011;28421;51.030;4.006;2023-04-07T12:29:35;12.63;;;2.17;;
29416;SDS011;28421;51.030;4.006;2023-04-07T12:32:01;8.77;;;2.28;;
29416;SDS011;28421;51.030;4.006;2023-04-07T12:34:28;5.93;;;1.85;;
29416;SDS011;28421;51.030;4.006;2023-04-07T12:36:53;5.82;;;1.67;;
29416;SDS011;28421;51.030;4.006;2023-04-07T12:39:18;10.98;;;1.77;;
29416;SDS011;28421;51.030;4.006;2023-04-07T12:41:45;5.85;;;2.22;;
29416;SDS011;28421;51.030;4.006;2023-04-07T12:44:11;4.55;;;2.00;;
29416;SDS011;28421;51.030;4.006;2023-04-07T12:46:37;7.63;;;1.85;;
29416;SDS011;28421;51.030;4.006;2023-04-07T12:49:02;3.75;;;2.00;;
29416;SDS011;28421;51.030;4.006;2023-04-07T12:51:28;6.97;;;2.30;;
29416;SDS011;28421;51.030;4.006;2023-04-07T12:53:53;7.20;;;2.45;;
29416;SDS011;28421;51.030;4.006;2023-04-07T12:56:19;10.65;;;2.00;;
29416;SDS011;28421;51.030;4.006;2023-04-07T12:58:46;12.77;;;2.10;;
29416;SDS011;28421;51.030;4.006;2023-04-07T13:01:12;6.20;;;2.15;;
29416;SDS011;28421;51.030;4.006;2023-04-07T13:03:38;9.30;;;1.40;;
29416;SDS011;28421;51.030;4.006;2023-04-07T13:06:04;9.25;;;1.70;;
29416;SDS011;28421;51.030;4.006;2023-04-07T13:08:29;8.10;;;2.15;;
29416;SDS011;28421;51.030;4.006;2023-04-07T13:10:58;2.42;;;1.85;;
29416;SDS011;28421;51.030;4.006;2023-04-07T13:13:23;13.93;;;2.55;;
29416;SDS011;28421;51.030;4.006;2023-04-07T13:15:49;10.02;;;1.80;;
29416;SDS011;28421;51.030;4.006;2023-04-07T13:18:14;6.10;;;2.17;;
29416;SDS011;28421;51.030;4.006;2023-04-07T13:20:39;7.30;;;1.85;;
29416;SDS011;28421;51.030;4.006;2023-04-07T13:23:05;9.23;;;2.40;;
29416;SDS011;28421;51.030;4.006;2023-04-07T13:25:31;3.42;;;1.88;;
29416;SDS011;28421;51.030;4.006;2023-04-07T13:27:56;5.85;;;2.28;;
29416;SDS011;28421;51.030;4.006;2023-04-07T13:30:21;5.43;;;2.10;;
29416;SDS011;28421;51.030;4.006;2023-04-07T13:32:47;4.57;;;2.15;;
29416;SDS011;28421;51.030;4.006;2023-04-07T13:35:16;3.50;;;1.40;;
29416;SDS011;28421;51.030;4.006;2023-04-07T13:37:42;6.72;;;1.98;;
29416;SDS011;28421;51.030;4.006;2023-04-07T13:40:08;6.47;;;1.55;;
29416;SDS011;28421;51.030;4.006;2023-04-07T13:42:34;5.20;;;2.22;;
29416;SDS011;28421;51.030;4.006;2023-04-07T13:45:00;2.95;;;1.83;;
29416;SDS011;28421;51.030;4.006;2023-04-07T13:47:25;11.48;;;1.80;;
29416;SDS011;28421;51.030;4.006;2023-04-07T13:49:53;3.70;;;2.15;;
29416;SDS011;28421;51.030;4.006;2023-04-07T13:52:19;11.50;;;1.88;;
29416;SDS011;28421;51.030;4.006;2023-04-07T13:54:45;6.85;;;1.45;;
29416;SDS011;28421;51.030;4.006;2023-04-07T13:57:19;2.95;;;1.45;;
29416;SDS011;28421;51.030;4.006;2023-04-07T13:59:45;4.15;;;2.22;;
29416;SDS011;28421;51.030;4.006;2023-04-07T14:02:12;5.47;;;1.50;;
29416;SDS011;28421;51.030;4.006;2023-04-07T14:04:38;5.05;;;1.70;;
29416;SDS011;28421;51.030;4.006;2023-04-07T14:07:04;7.35;;;1.08;;
29416;SDS011;28421;51.030;4.006;2023-04-07T14:09:30;3.17;;;1.50;;
29416;SDS011;28421;51.030;4.006;2023-04-07T14:11:56;5.38;;;1.58;;
29416;SDS011;28421;51.030;4.006;2023-04-07T14:14:22;4.75;;;1.60;;
29416;SDS011;28421;51.030;4.006;2023-04-07T14:16:47;7.55;;;2.08;;
29416;SDS011;28421;51.030;4.006;2023-04-07T14:19:19;2.40;;;2.05;;
29416;SDS011;28421;51.030;4.006;2023-04-07T14:21:46;1.58;;;1.20;;
29416;SDS011;28421;51.030;4.006;2023-04-07T14:24:12;3.17;;;1.02;;
29416;SDS011;28421;51.030;4.006;2023-04-07T14:26:37;3.42;;;1.65;;
29416;SDS011;28421;51.030;4.006;2023-04-07T14:29:03;2.97;;;1.25;;
29416;SDS011;28421;51.030;4.006;2023-04-07T14:31:28;9.20;;;1.30;;
29416;SDS011;28421;51.030;4.006;2023-04-07T14:33:53;4.00;;;1.90;;
29416;SDS011;28421;51.030;4.006;2023-04-07T14:36:19;9.80;;;1.85;;
29416;SDS011;28421;51.030;4.006;2023-04-07T14:38:45;1.60;;;1.15;;
29416;SDS011;28421;51.030;4.006;2023-04-07T14:41:10;1.05;;;1.00;;
29416;SDS011;28421;51.030;4.006;2023-04-07T14:43:36;3.40;;;1.15;;
29416;SDS011;28421;51.030;4.006;2023-04-07T14:46:02;11.20;;;1.55;;
29416;SDS011;28421;51.030;4.006;2023-04-07T14:48:28;1.25;;;1.15;;
29416;SDS011;28421;51.030;4.006;2023-04-07T14:50:53;5.30;;;1.27;;
29416;SDS011;28421;51.030;4.006;2023-04-07T14:53:19;2.35;;;1.15;;
29416;SDS011;28421;51.030;4.006;2023-04-07T14:55:45;8.25;;;1.63;;
29416;SDS011;28421;51.030;4.006;2023-04-07T14:58:11;3.22;;;1.58;;
29416;SDS011;28421;51.030;4.006;2023-04-07T15:00:36;5.20;;;1.45;;
29416;SDS011;28421;51.030;4.006;2023-04-07T15:03:02;2.55;;;1.63;;
29416;SDS011;28421;51.030;4.006;2023-04-07T15:05:28;1.20;;;1.10;;
29416;SDS011;28421;51.030;4.006;2023-04-07T15:07:54;3.45;;;1.48;;
29416;SDS011;28421;51.030;4.006;2023-04-07T15:10:19;3.35;;;1.20;;
29416;SDS011;28421;51.030;4.006;2023-04-07T15:12:45;7.60;;;1.38;;
29416;SDS011;28421;51.030;4.006;2023-04-07T15:15:13;1.42;;;0.93;;
29416;SDS011;28421;51.030;4.006;2023-04-07T15:17:39;11.52;;;1.92;;
29416;SDS011;28421;51.030;4.006;2023-04-07T15:20:05;6.93;;;1.50;;
29416;SDS011;28421;51.030;4.006;2023-04-07T15:22:31;2.85;;;1.95;;
29416;SDS011;28421;51.030;4.006;2023-04-07T15:24:57;9.43;;;2.15;;
29416;SDS011;28421;51.030;4.006;2023-04-07T15:27:23;10.05;;;1.80;;
29416;SDS011;28421;51.030;4.006;2023-04-07T15:29:48;4.93;;;1.90;;
29416;SDS011;28421;51.030;4.006;2023-04-07T15:32:14;2.50;;;1.83;;
29416;SDS011;28421;51.030;4.006;2023-04-07T15:34:39;5.25;;;2.15;;
29416;SDS011;28421;51.030;4.006;2023-04-07T15:37:04;4.18;;;1.65;;
29416;SDS011;28421;51.030;4.006;2023-04-07T15:39:30;6.03;;;1.70;;
29416;SDS011;28421;51.030;4.006;2023-04-07T15:41:55;1.92;;;1.73;;
29416;SDS011;28421;51.030;4.006;2023-04-07T15:44:21;5.82;;;1.63;;
29416;SDS011;28421;51.030;4.006;2023-04-07T15:46:46;8.65;;;1.98;;
29416;SDS011;28421;51.030;4.006;2023-04-07T15:49:12;3.70;;;1.40;;
29416;SDS011;28421;51.030;4.006;2023-04-07T15:51:38;5.13;;;1.50;;
29416;SDS011;28421;51.030;4.006;2023-04-07T15:54:03;1.48;;;0.98;;
29416;SDS011;28421;51.030;4.006;2023-04-07T15:56:29;4.10;;;1.40;;
29416;SDS011;28421;51.030;4.006;2023-04-07T15:58:54;8.20;;;2.10;;
29416;SDS011;28421;51.030;4.006;2023-04-07T16:01:20;2.40;;;1.70;;
29416;SDS011;28421;51.030;4.006;2023-04-07T16:03:45;2.58;;;1.50;;
29416;SDS011;28421;51.030;4.006;2023-04-07T16:06:11;2.55;;;1.75;;
29416;SDS011;28421;51.030;4.006;2023-04-07T16:08:37;6.57;;;1.90;;
29416;SDS011;28421;51.030;4.006;2023-04-07T16:11:02;7.20;;;1.77;;
29416;SDS011;28421;51.030;4.006;2023-04-07T16:13:28;5.63;;;2.10;;
29416;SDS011;28421;51.030;4.006;2023-04-07T16:15:54;4.75;;;2.05;;
29416;SDS011;28421;51.030;4.006;2023-04-07T16:18:22;4.32;;;1.65;;
29416;SDS011;28421;51.030;4.006;2023-04-07T16:20:48;3.97;;;1.90;;
29416;SDS011;28421;51.030;4.006;2023-04-07T16:23:13;4.13;;;1.50;;
29416;SDS011;28421;51.030;4.006;2023-04-07T16:25:38;2.70;;;1.60;;
29416;SDS011;28421;51.030;4.006;2023-04-07T16:28:04;6.82;;;2.03;;
29416;SDS011;28421;51.030;4.006;2023-04-07T16:30:29;5.53;;;2.72;;
29416;SDS011;28421;51.030;4.006;2023-04-07T16:32:55;7.85;;;2.72;;
29416;SDS011;28421;51.030;4.006;2023-04-07T16:35:20;13.43;;;2.70;;
29416;SDS011;28421;51.030;4.006;2023-04-07T16:37:46;9.90;;;2.10;;
29416;SDS011;28421;51.030;4.006;2023-04-07T16:40:13;4.30;;;1.70;;
29416;SDS011;28421;51.030;4.006;2023-04-07T16:42:38;8.02;;;2.42;;
29416;SDS011;28421;51.030;4.006;2023-04-07T16:45:05;7.97;;;2.90;;
29416;SDS011;28421;51.030;4.006;2023-04-07T16:47:31;3.55;;;2.08;;
29416;SDS011;28421;51.030;4.006;2023-04-07T16:49:57;6.10;;;2.33;;
29416;SDS011;28421;51.030;4.006;2023-04-07T16:52:23;4.78;;;1.98;;
29416;SDS011;28421;51.030;4.006;2023-04-07T16:54:48;7.10;;;2.92;;
29416;SDS011;28421;51.030;4.006;2023-04-07T16:57:15;5.50;;;3.55;;
29416;SDS011;28421;51.030;4.006;2023-04-07T16:59:40;6.85;;;2.08;;
29416;SDS011;28421;51.030;4.006;2023-04-07T17:02:10;5.63;;;2.03;;
29416;SDS011;28421;51.030;4.006;2023-04-07T17:04:37;5.78;;;1.83;;
29416;SDS011;28421;51.030;4.006;2023-04-07T17:07:03;4.22;;;2.20;;
29416;SDS011;28421;51.030;4.006;2023-04-07T17:09:29;6.85;;;2.08;;
29416;SDS011;28421;51.030;4.006;2023-04-07T17:11:55;7.53;;;2.22;;
29416;SDS011;28421;51.030;4.006;2023-04-07T17:14:20;6.55;;;2.25;;
29416;SDS011;28421;51.030;4.006;2023-04-07T17:16:46;10.40;;;2.00;;
29416;SDS011;28421;51.030;4.006;2023-04-07T17:19:12;11.10;;;2.67;;
29416;SDS011;28421;51.030;4.006;2023-04-07T17:21:37;7.85;;;2.15;;
29416;SDS011;28421;51.030;4.006;2023-04-07T17:24:03;4.15;;;2.15;;
29416;SDS011;28421;51.030;4.006;2023-04-07T17:26:28;7.05;;;2.08;;
29416;SDS011;28421;51.030;4.006;2023-04-07T17:28:53;3.78;;;1.70;;
29416;SDS011;28421;51.030;4.006;2023-04-07T17:31:19;3.08;;;1.98;;
29416;SDS011;28421;51.030;4.006;2023-04-07T17:33:44;9.43;;;2.13;;
29416;SDS011;28421;51.030;4.006;2023-04-07T17:36:11;4.68;;;2.58;;
29416;SDS011;28421;51.030;4.006;2023-04-07T17:38:37;5.05;;;2.25;;
29416;SDS011;28421;51.030;4.006;2023-04-07T17:41:02;5.70;;;2.55;;
29416;SDS011;28421;51.030;4.006;2023-04-07T17:43:28;4.03;;;2.05;;
29416;SDS011;28421;51.030;4.006;2023-04-07T17:45:54;7.65;;;2.03;;
29416;SDS011;28421;51.030;4.006;2023-04-07T17:48:20;6.63;;;2.03;;
29416;SDS011;28421;51.030;4.006;2023-04-07T17:50:46;5.50;;;2.08;;
29416;SDS011;28421;51.030;4.006;2023-04-07T17:53:14;7.65;;;2.78;;
29416;SDS011;28421;51.030;4.006;2023-04-07T17:55:40;5.18;;;1.98;;
29416;SDS011;28421;51.030;4.006;2023-04-07T17:58:06;4.45;;;1.75;;
29416;SDS011;28421;51.030;4.006;2023-04-07T18:00:32;8.65;;;2.63;;
29416;SDS011;28421;51.030;4.006;2023-04-07T18:02:57;4.22;;;1.58;;
29416;SDS011;28421;51.030;4.006;2023-04-07T18:05:23;8.73;;;2.33;;
29416;SDS011;28421;51.030;4.006;2023-04-07T18:07:50;8.90;;;2.42;;
29416;SDS011;28421;51.030;4.006;2023-04-07T18:10:16;9.38;;;1.90;;